Time;durP1;ratioP1;P1;durP2;ratioP2;P2;SDS_P1;SDS_P2;PMS_P1;PMS_P2;Temp;Humidity;BMP_temperature;BMP_pressure;BME280_temperature;BME280_humidity;BME280_pressure;Samples;Min_cycle;Max_cycle;Signal;HPM_P1;HPM_P2
2023/07/02 00:01:35;;;;;;;1999.90;999.90;;;;;;;17.95;100.00;94069.94;5108552;28;20160;-65
2023/07/02 00:04:01;;;;;;;1999.90;999.90;;;;;;;17.98;100.00;94074.47;5108584;28;20164;-64
2023/07/02 00:06:26;;;;;;;1999.90;999.90;;;;;;;18.00;100.00;94072.00;5108566;28;20183;-64
2023/07/02 00:08:51;;;;;;;1999.90;999.90;;;;;;;17.96;100.00;94082.50;5107951;28;20164;-64
2023/07/02 00:11:17;;;;;;;1999.90;999.90;;;;;;;17.99;100.00;94070.47;5108240;28;20164;-64
2023/07/02 00:13:42;;;;;;;1999.90;999.90;;;;;;;17.98;100.00;94083.53;5107833;28;20160;-65
2023/07/02 00:16:07;;;;;;;1999.90;999.90;;;;;;;17.98;100.00;94091.03;5107747;28;20164;-64
2023/07/02 00:18:34;;;;;;;1999.90;999.90;;;;;;;18.00;100.00;94088.56;5107800;28;20200;-64
2023/07/02 00:21:02;;;;;;;1999.90;999.90;;;;;;;18.00;100.00;94099.63;5108403;28;20164;-64
2023/07/02 00:23:29;;;;;;;1999.90;999.90;;;;;;;18.01;100.00;94101.91;5107754;28;20191;-64
2023/07/02 00:25:54;;;;;;;1999.90;999.90;;;;;;;17.99;100.00;94114.69;5107670;28;20259;-64
2023/07/02 00:28:20;;;;;;;1999.90;999.90;;;;;;;18.03;100.00;94115.25;5108190;28;20186;-64
2023/07/02 00:30:45;;;;;;;1999.90;999.90;;;;;;;18.04;100.00;94116.75;5107924;28;20231;-64
2023/07/02 00:33:10;;;;;;;1999.90;999.90;;;;;;;18.07;100.00;94116.53;5108388;28;20167;-63
2023/07/02 00:35:36;;;;;;;1999.90;999.90;;;;;;;18.08;100.00;94125.59;5107473;28;20317;-64
2023/07/02 00:38:02;;;;;;;1999.90;999.90;;;;;;;18.12;100.00;94132.44;5107529;28;20262;-64
2023/07/02 00:40:27;;;;;;;1999.90;999.90;;;;;;;18.13;100.00;94135.97;5107652;28;20186;-64
2023/07/02 00:42:52;;;;;;;1999.90;999.90;;;;;;;18.11;100.00;94132.94;5107606;28;20164;-63
2023/07/02 00:45:18;;;;;;;1999.90;999.90;;;;;;;18.09;100.00;94132.66;5107596;28;20171;-64
2023/07/02 00:47:44;;;;;;;1999.90;999.90;;;;;;;18.07;100.00;94137.91;5107374;28;20167;-65
2023/07/02 00:50:10;;;;;;;1999.90;999.90;;;;;;;18.06;100.00;94136.41;5107823;28;20171;-64
2023/07/02 00:52:36;;;;;;;1999.90;999.90;;;;;;;18.00;100.00;94119.75;5107877;28;20170;-65
2023/07/02 00:55:02;;;;;;;1999.90;999.90;;;;;;;17.95;100.00;94125.19;5107434;28;20194;-64
2023/07/02 00:57:29;;;;;;;1999.90;999.90;;;;;;;17.95;100.00;94119.66;5107758;28;20250;-64
2023/07/02 00:59:57;;;;;;;1999.90;999.90;;;;;;;17.92;100.00;94109.56;5107372;28;20175;-64
2023/07/02 01:02:25;;;;;;;1999.90;999.90;;;;;;;17.88;100.00;94103.50;5107418;28;20247;-63
2023/07/02 01:04:52;;;;;;;1999.90;999.90;;;;;;;17.89;100.00;94105.00;5107214;28;20163;-63
2023/07/02 01:07:17;;;;;;;1999.90;999.90;;;;;;;17.84;100.00;94097.38;5107836;28;20160;-64
2023/07/02 01:09:43;;;;;;;1999.90;999.90;;;;;;;17.89;100.00;94089.16;5107725;28;20182;-65
2023/07/02 01:12:10;;;;;;;1999.90;999.90;;;;;;;17.85;100.00;94093.41;5107314;28;20160;-64
2023/07/02 01:14:39;;;;;;;1999.90;999.90;;;;;;;17.85;100.00;94087.88;5107252;28;20168;-64
2023/07/02 01:17:06;;;;;;;1999.90;999.90;;;;;;;17.90;100.00;94084.41;5107111;28;20260;-64
2023/07/02 01:19:51;;;;;;;1999.90;999.90;;;;;;;17.87;100.00;94068.81;5107001;28;20179;-64
2023/07/02 01:22:18;;;;;;;1999.90;999.90;;;;;;;17.82;100.00;94081.31;5107760;28;20239;-64
2023/07/02 01:24:44;;;;;;;1999.90;999.90;;;;;;;17.78;100.00;94071.69;5107078;28;20191;-64
2023/07/02 01:27:10;;;;;;;1999.90;999.90;;;;;;;17.81;100.00;94062.47;5107266;28;20184;-64
2023/07/02 01:29:36;;;;;;;1999.90;999.90;;;;;;;17.79;100.00;94067.69;5107552;28;20193;-64
2023/07/02 01:32:02;;;;;;;1999.90;999.90;;;;;;;17.74;100.00;94066.38;5107088;28;20179;-64
2023/07/02 01:34:27;;;;;;;1999.90;999.90;;;;;;;17.80;100.00;94063.69;5106945;28;20168;-64
2023/07/02 01:36:52;;;;;;;1999.90;999.90;;;;;;;17.75;100.00;94056.09;5107271;28;20223;-64
2023/07/02 01:39:18;;;;;;;1999.90;999.90;;;;;;;17.73;100.00;94064.09;5107505;28;20206;-64
2023/07/02 01:41:51;;;;;;;1999.90;999.90;;;;;;;17.67;100.00;94060.50;5106947;28;20172;-65
2023/07/02 01:44:17;;;;;;;1999.90;999.90;;;;;;;17.73;100.00;94053.03;5107706;28;20168;-64
2023/07/02 01:46:43;;;;;;;1999.90;999.90;;;;;;;17.68;100.00;94056.50;5106855;28;20172;-64
2023/07/02 01:49:09;;;;;;;1999.90;999.90;;;;;;;17.63;100.00;94048.91;5106888;28;20176;-64
2023/07/02 01:51:34;;;;;;;1999.90;999.90;;;;;;;17.64;100.00;94045.66;5107390;28;20166;-64
2023/07/02 01:54:00;;;;;;;1999.90;999.90;;;;;;;17.63;100.00;94044.13;5107133;28;20172;-64
2023/07/02 01:56:26;;;;;;;1999.90;999.90;;;;;;;17.66;100.00;94043.16;5108192;28;20163;-64
2023/07/02 01:58:51;;;;;;;1999.90;999.90;;;;;;;17.67;100.00;94043.94;5110449;28;20195;-64
2023/07/02 02:01:17;;;;;;;1999.90;999.90;;;;;;;17.66;100.00;94056.22;5110470;28;20168;-64
2023/07/02 02:03:42;;;;;;;1999.90;999.90;;;;;;;17.70;100.00;94052.00;5111006;28;20168;-64
2023/07/02 02:06:08;;;;;;;1999.90;999.90;;;;;;;17.68;100.00;94056.50;5110381;28;20247;-64
2023/07/02 02:08:33;;;;;;;1999.90;999.90;;;;;;;17.59;100.00;94059.41;5110521;28;20176;-64
2023/07/02 02:11:00;;;;;;;1999.90;999.90;;;;;;;17.54;100.00;94058.06;5110251;28;20180;-64
2023/07/02 02:13:25;;;;;;;1999.90;999.90;;;;;;;17.48;100.00;94059.97;5110974;28;20167;-64
2023/07/02 02:15:51;;;;;;;1999.90;999.90;;;;;;;17.38;100.00;94055.03;5110207;28;20178;-64
2023/07/02 02:18:16;;;;;;;1999.90;999.90;;;;;;;17.35;100.00;94061.50;5110089;28;20230;-63
2023/07/02 02:20:41;;;;;;;1999.90;999.90;;;;;;;17.30;100.00;94049.13;5110022;28;20168;-63
2023/07/02 02:23:07;;;;;;;1999.90;999.90;;;;;;;17.28;100.00;94050.84;5110161;28;20167;-64
2023/07/02 02:25:32;;;;;;;1999.90;999.90;;;;;;;17.23;100.00;94048.78;5110040;28;20175;-63
2023/07/02 02:27:57;;;;;;;1999.90;999.90;;;;;;;17.19;100.00;94048.97;5110215;28;20212;-63
2023/07/02 02:30:23;;;;;;;1999.90;999.90;;;;;;;17.22;100.00;94056.28;5110510;28;20176;-63
2023/07/02 02:32:49;;;;;;;1999.90;999.90;;;;;;;17.25;100.00;94036.03;5110327;28;20172;-63
2023/07/02 02:35:14;;;;;;;1999.90;999.90;;;;;;;17.30;100.00;94032.56;5110263;28;20175;-64
2023/07/02 02:37:40;;;;;;;1999.90;999.90;;;;;;;17.27;100.00;94039.06;5109923;28;20244;-64
2023/07/02 02:40:08;;;;;;;1999.90;999.90;;;;;;;17.29;100.00;94030.28;5109806;28;20240;-64
2023/07/02 02:42:34;;;;;;;1999.90;999.90;;;;;;;17.34;100.00;94032.41;5110502;28;20168;-64
2023/07/02 02:44:59;;;;;;;1999.90;999.90;;;;;;;17.37;100.00;94032.19;5109627;28;20175;-64
2023/07/02 02:47:25;;;;;;;1999.90;999.90;;;;;;;17.37;100.00;94042.47;5109577;28;20164;-65
2023/07/02 02:49:50;;;;;;;1999.90;999.90;;;;;;;17.41;100.00;94043.03;5109540;28;20196;-64
2023/07/02 02:52:15;;;;;;;1999.90;999.90;;;;;;;17.43;100.00;94041.34;5109579;28;20213;-64
2023/07/02 02:54:41;;;;;;;1999.90;999.90;;;;;;;17.46;100.00;94045.13;5109506;28;20167;-64
2023/07/02 02:57:06;;;;;;;1999.90;999.90;;;;;;;17.47;100.00;94052.94;5109885;28;20203;-65
2023/07/02 02:59:31;;;;;;;1999.90;999.90;;;;;;;17.54;100.00;94054.53;5109438;28;20172;-64
2023/07/02 03:01:57;;;;;;;1999.90;999.90;;;;;;;17.58;100.00;94063.38;5109728;28;20205;-65
2023/07/02 03:04:23;;;;;;;1999.90;999.90;;;;;;;17.61;100.00;94073.47;5109901;28;20172;-64
2023/07/02 03:06:49;;;;;;;1999.90;999.90;;;;;;;17.63;100.00;94084.81;5109573;28;20248;-64
2023/07/02 03:09:14;;;;;;;1999.90;999.90;;;;;;;17.62;100.00;94086.78;5109287;28;20168;-64
2023/07/02 03:11:40;;;;;;;1999.90;999.90;;;;;;;17.62;100.00;94091.53;5109106;28;20233;-64
2023/07/02 03:14:05;;;;;;;1999.90;999.90;;;;;;;17.62;100.00;94086.03;5109037;28;20179;-65
2023/07/02 03:16:30;;;;;;;1999.90;999.90;;;;;;;17.62;100.00;94097.06;5109030;28;20176;-64
2023/07/02 03:18:56;;;;;;;1999.90;999.90;;;;;;;17.57;100.00;94101.28;5109441;28;20168;-64
2023/07/02 03:21:21;;;;;;;1999.90;999.90;;;;;;;17.59;100.00;94098.03;5108918;28;20175;-64
2023/07/02 03:23:46;;;;;;;1999.90;999.90;;;;;;;17.59;100.00;94092.53;5108836;28;20175;-65
2023/07/02 03:26:12;;;;;;;1999.90;999.90;;;;;;;17.54;100.00;94084.91;5108757;28;20217;-65
2023/07/02 03:28:38;;;;;;;1999.90;999.90;;;;;;;17.53;100.00;94084.16;5109615;28;20176;-64
2023/07/02 03:31:03;;;;;;;1999.90;999.90;;;;;;;17.47;100.00;94119.19;5108968;28;20193;-63
2023/07/02 03:33:28;;;;;;;1999.90;999.90;;;;;;;17.07;100.00;94141.06;5109221;28;20175;-65
2023/07/02 03:35:54;;;;;;;1999.90;999.90;;;;;;;16.63;100.00;94156.03;5108606;28;20231;-65
2023/07/02 03:38:19;;;;;;;1999.90;999.90;;;;;;;16.11;100.00;94183.00;5108548;28;20199;-65
2023/07/02 03:40:44;;;;;;;1999.90;999.90;;;;;;;15.77;100.00;94189.00;5108470;28;20175;-66
2023/07/02 03:43:10;;;;;;;1999.90;999.90;;;;;;;15.58;100.00;94212.31;5108592;28;20205;-66
2023/07/02 03:45:35;;;;;;;1999.90;999.90;;;;;;;15.39;100.00;94207.34;5108375;28;20240;-69
2023/07/02 03:48:00;;;;;;;1999.90;999.90;;;;;;;15.34;100.00;94196.94;5109141;28;20163;-68
2023/07/02 03:50:26;;;;;;;1999.90;999.90;;;;;;;15.34;100.00;94185.94;5108809;28;20171;-70
2023/07/02 03:52:51;;;;;;;1999.90;999.90;;;;;;;15.23;100.00;94175.41;5108869;28;20191;-70
2023/07/02 03:55:17;;;;;;;1999.90;999.90;;;;;;;15.18;100.00;94156.78;5108481;28;20168;-68
2023/07/02 03:57:42;;;;;;;1999.90;999.90;;;;;;;15.23;100.00;94134.13;5108703;28;20192;-69
2023/07/02 04:00:10;;;;;;;1999.90;999.90;;;;;;;15.16;100.00;94109.72;5108157;28;20188;-70
2023/07/02 04:02:35;;;;;;;1999.90;999.90;;;;;;;15.19;100.00;94088.78;5107921;28;20231;-69
2023/07/02 04:05:02;;;;;;;1999.90;999.90;;;;;;;15.22;100.00;94091.38;5108589;28;20167;-71
2023/07/02 04:07:28;;;;;;;1999.90;999.90;;;;;;;15.22;100.00;94079.59;5107985;28;20231;-70
2023/07/02 04:09:53;;;;;;;1999.90;999.90;;;;;;;15.20;100.00;94071.06;5107684;28;20176;-71
2023/07/02 04:12:19;;;;;;;1999.90;999.90;;;;;;;15.20;100.00;94049.06;5108359;28;20212;-72
2023/07/02 04:14:44;;;;;;;1999.90;999.90;;;;;;;15.09;100.00;94033.06;5108059;28;20164;-72
2023/07/02 04:17:09;;;;;;;1999.90;999.90;;;;;;;15.10;100.00;94023.59;5108135;28;20203;-73
2023/07/02 04:19:35;;;;;;;1999.90;999.90;;;;;;;15.06;100.00;93984.50;5107679;28;20172;-72
2023/07/02 04:22:00;;;;;;;1999.90;999.90;;;;;;;15.07;100.00;93964.00;5107836;28;20217;-73
2023/07/02 04:24:26;;;;;;;1999.90;999.90;;;;;;;15.08;100.00;93932.53;5108033;28;20175;-71
2023/07/02 04:26:52;;;;;;;1999.90;999.90;;;;;;;15.07;100.00;93909.03;5107718;28;20258;-70
2023/07/02 04:29:18;;;;;;;1999.90;999.90;;;;;;;15.08;100.00;93883.03;5108141;28;20209;-70
2023/07/02 04:31:43;;;;;;;1999.90;999.90;;;;;;;15.05;100.00;93870.22;5108049;28;20171;-71
2023/07/02 04:34:08;;;;;;;1999.90;999.90;;;;;;;15.09;100.00;93848.84;5107582;28;20168;-72
2023/07/02 04:36:34;;;;;;;1999.90;999.90;;;;;;;15.07;100.00;93826.53;5107602;28;20244;-71
2023/07/02 04:38:59;;;;;;;1999.90;999.90;;;;;;;15.06;100.00;93814.03;5107295;28;20168;-71
2023/07/02 04:41:27;;;;;;;1999.90;999.90;;;;;;;15.04;100.00;93797.22;5108174;28;20192;-71
2023/07/02 04:43:52;;;;;;;1999.90;999.90;;;;;;;15.10;100.00;93803.59;5108180;28;20233;-71
2023/07/02 04:46:18;;;;;;;1999.90;999.90;;;;;;;15.12;100.00;93757.13;5108116;28;20175;-70
2023/07/02 04:48:43;;;;;;;1999.90;999.90;;;;;;;15.10;100.00;93731.34;5108157;28;20176;-70
2023/07/02 04:51:08;;;;;;;1999.90;999.90;;;;;;;15.11;100.00;93725.38;5107765;28;20457;-70
2023/07/02 04:53:34;;;;;;;1999.90;999.90;;;;;;;15.13;100.00;93714.66;5107328;28;20171;-70
2023/07/02 04:55:59;;;;;;;1999.90;999.90;;;;;;;15.12;100.00;93704.88;5107480;28;20174;-69
2023/07/02 04:58:24;;;;;;;1999.90;999.90;;;;;;;15.15;100.00;93695.69;5106939;28;20207;-69
2023/07/02 05:00:50;;;;;;;1999.90;999.90;;;;;;;15.10;100.00;93688.13;5107640;28;20190;-69
2023/07/02 05:03:15;;;;;;;1999.90;999.90;;;;;;;15.10;100.00;93690.88;5107850;28;20179;-68
2023/07/02 05:05:41;;;;;;;1999.90;999.90;;;;;;;15.09;100.00;93694.84;5107791;28;20179;-68
2023/07/02 05:08:06;;;;;;;1999.90;999.90;;;;;;;15.12;100.00;93685.63;5107200;28;20341;-67
2023/07/02 05:10:32;;;;;;;1999.90;999.90;;;;;;;15.18;100.00;93691.22;5107276;28;20181;-67
2023/07/02 05:12:57;;;;;;;1999.90;999.90;;;;;;;15.17;100.00;93676.75;5107213;28;20175;-67
2023/07/02 05:15:24;;;;;;;1999.90;999.90;;;;;;;15.26;100.00;93684.88;5107295;28;20175;-67
2023/07/02 05:17:49;;;;;;;1999.90;999.90;;;;;;;15.29;100.00;93678.44;5107575;28;20210;-67
2023/07/02 05:20:14;;;;;;;1999.90;999.90;;;;;;;15.33;100.00;93675.47;5107180;28;20175;-66
2023/07/02 05:22:40;;;;;;;1999.90;999.90;;;;;;;15.30;100.00;93685.44;5107064;28;20168;-71
2023/07/02 05:25:05;;;;;;;1999.90;999.90;;;;;;;15.34;100.00;93685.28;5107104;28;20195;-67
2023/07/02 05:27:31;;;;;;;1999.90;999.90;;;;;;;15.34;100.00;93680.50;5106993;28;20191;-68
2023/07/02 05:29:57;;;;;;;1999.90;999.90;;;;;;;15.41;100.00;93685.66;5106946;28;20167;-68
2023/07/02 05:32:22;;;;;;;1999.90;999.90;;;;;;;15.49;100.00;93691.53;5110801;28;20235;-67
2023/07/02 05:34:47;;;;;;;1999.90;999.90;;;;;;;15.55;100.00;93684.88;5111506;28;20186;-67
2023/07/02 05:37:13;;;;;;;1999.90;999.90;;;;;;;15.59;100.00;93679.94;5110466;28;20257;-67
2023/07/02 05:39:38;;;;;;;1999.90;999.90;;;;;;;15.63;100.00;93674.25;5110914;28;20256;-67
2023/07/02 05:42:04;;;;;;;1999.90;999.90;;;;;;;15.63;100.00;93688.03;5110803;28;20172;-67
2023/07/02 05:44:29;;;;;;;1999.90;999.90;;;;;;;15.69;100.00;93684.09;5110576;28;20172;-67
2023/07/02 05:46:54;;;;;;;1999.90;999.90;;;;;;;15.69;100.00;93684.09;5111270;28;20176;-67
2023/07/02 05:49:20;;;;;;;1999.90;999.90;;;;;;;15.76;100.00;93700.25;5110749;28;20175;-66
2023/07/02 05:51:45;;;;;;;1999.90;999.90;;;;;;;15.81;100.00;93707.06;5111377;28;20197;-66
2023/07/02 05:54:10;;;;;;;1999.90;999.90;;;;;;;15.92;100.00;93719.00;5110627;28;20175;-67
2023/07/02 05:56:36;;;;;;;1999.90;999.90;;;;;;;15.98;100.00;93725.34;5110521;28;20164;-67
2023/07/02 05:59:01;;;;;;;1999.90;999.90;;;;;;;16.05;100.00;93729.69;5110516;28;20225;-66
2023/07/02 06:01:26;;;;;;;1999.90;999.90;;;;;;;16.11;100.00;93742.28;5110568;28;20216;-66
2023/07/02 06:03:52;;;;;;;1999.90;999.90;;;;;;;16.09;100.00;93750.28;5110530;28;20172;-67
2023/07/02 06:06:17;;;;;;;1999.90;999.90;;;;;;;16.11;100.00;93774.59;5110321;28;20328;-67
2023/07/02 06:08:43;;;;;;;1999.90;999.90;;;;;;;16.06;100.00;93784.28;5110411;28;20182;-67
2023/07/02 06:11:10;;;;;;;1999.90;999.90;;;;;;;16.07;100.00;93796.81;5110814;28;20168;-66
2023/07/02 06:13:35;;;;;;;1999.90;999.90;;;;;;;16.02;100.00;93816.78;5110215;28;20258;-66
2023/07/02 06:16:01;;;;;;;1999.90;999.90;;;;;;;16.07;100.00;93821.59;5110956;28;20168;-67
2023/07/02 06:18:26;;;;;;;1999.90;999.90;;;;;;;16.00;100.00;93833.00;5110138;28;20298;-66
2023/07/02 06:20:51;;;;;;;1999.90;999.90;;;;;;;15.93;100.00;93841.69;5110523;28;20172;-67
2023/07/02 06:23:17;;;;;;;1999.90;999.90;;;;;;;16.00;100.00;93846.78;5110634;28;20168;-67
2023/07/02 06:25:42;;;;;;;1999.90;999.90;;;;;;;16.02;100.00;93846.31;5109967;28;20183;-67
2023/07/02 06:28:09;;;;;;;1999.90;999.90;;;;;;;15.99;100.00;93853.53;5110493;28;20171;-67
2023/07/02 06:30:34;;;;;;;1999.90;999.90;;;;;;;15.95;100.00;93850.22;5110009;28;20171;-66
2023/07/02 06:33:00;;;;;;;1999.90;999.90;;;;;;;15.99;100.00;93850.78;5109791;28;20178;-66
2023/07/02 06:35:25;;;;;;;1999.90;999.90;;;;;;;15.95;100.00;93866.72;5109644;28;20286;-66
2023/07/02 06:37:51;;;;;;;1999.90;999.90;;;;;;;15.98;100.00;93863.03;5110017;28;20198;-66
2023/07/02 06:40:16;;;;;;;1999.90;999.90;;;;;;;16.02;100.00;93860.84;5109801;28;20250;-66
2023/07/02 06:42:42;;;;;;;1999.90;999.90;;;;;;;16.05;100.00;93859.91;5108933;28;20164;-67
2023/07/02 06:45:08;;;;;;;1999.90;999.90;;;;;;;16.03;100.00;93851.34;5109707;28;20235;-66
2023/07/02 06:47:33;;;;;;;1999.90;999.90;;;;;;;16.04;100.00;93852.88;5110274;28;20190;-66
2023/07/02 06:49:59;;;;;;;1999.90;999.90;;;;;;;16.08;100.00;93853.44;5109578;28;20172;-66
2023/07/02 06:52:24;;;;;;;1999.90;999.90;;;;;;;16.12;100.00;93851.25;5109813;28;20194;-66
2023/07/02 06:54:50;;;;;;;1999.90;999.90;;;;;;;16.14;100.00;93846.00;5109518;28;20269;-66
2023/07/02 06:57:15;;;;;;;1999.90;999.90;;;;;;;16.18;100.00;93854.84;5110052;28;20199;-66
2023/07/02 06:59:41;;;;;;;1999.90;999.90;;;;;;;16.18;100.00;93852.09;5110213;28;20179;-66
2023/07/02 07:02:06;;;;;;;1999.90;999.90;;;;;;;16.24;100.00;93850.19;5109364;28;20172;-66
2023/07/02 07:04:31;;;;;;;1999.90;999.90;;;;;;;16.16;100.00;93857.31;5109580;28;20182;-66
2023/07/02 07:06:57;;;;;;;1999.90;999.90;;;;;;;16.21;100.00;93851.13;5109189;28;20270;-66
2023/07/02 07:09:22;;;;;;;1999.90;999.90;;;;;;;16.27;100.00;93837.44;5109756;28;20172;-71
2023/07/02 07:11:48;;;;;;;1999.90;999.90;;;;;;;16.24;100.00;93844.69;5109426;28;20187;-82
2023/07/02 07:14:13;;;;;;;1999.90;999.90;;;;;;;16.19;100.00;93842.59;5109341;28;20218;-80
2023/07/02 07:16:39;;;;;;;1999.90;999.90;;;;;;;16.15;100.00;93836.53;5109092;28;20167;-84
2023/07/02 07:19:04;;;;;;;1999.90;999.90;;;;;;;16.11;100.00;93830.44;5109485;28;20187;-84
2023/07/02 07:21:30;;;;;;;1999.90;999.90;;;;;;;16.02;100.00;93832.53;5109562;28;20187;-87
2023/07/02 07:23:55;;;;;;;1999.90;999.90;;;;;;;15.99;100.00;93814.22;5109482;28;20187;-85
2023/07/02 07:26:21;;;;;;;1999.90;999.90;;;;;;;16.00;100.00;93810.97;5108891;28;20190;-78
2023/07/02 07:28:46;;;;;;;1999.90;999.90;;;;;;;15.93;100.00;93802.38;5109312;28;20172;-82
2023/07/02 07:31:11;;;;;;;1999.90;999.90;;;;;;;15.94;100.00;93787.34;5109366;28;20187;-82
2023/07/02 07:33:36;;;;;;;1999.90;999.90;;;;;;;15.87;100.00;93783.00;5108807;28;20195;-80
2023/07/02 07:36:02;;;;;;;1999.90;999.90;;;;;;;15.91;100.00;93772.53;5108715;28;20216;-84
2023/07/02 07:38:27;;;;;;;1999.90;999.90;;;;;;;15.81;100.00;93757.38;5108669;28;20199;-82
2023/07/02 07:40:53;;;;;;;1999.90;999.90;;;;;;;15.81;100.00;93762.13;5108937;28;20168;-81
2023/07/02 07:43:18;;;;;;;1999.90;999.90;;;;;;;15.86;100.00;93748.44;5109300;28;20191;-83
2023/07/02 07:45:43;;;;;;;1999.90;999.90;;;;;;;15.80;100.00;93758.59;5108972;28;20279;-78
2023/07/02 07:48:09;;;;;;;1999.90;999.90;;;;;;;15.89;100.00;93747.47;5108769;28;20175;-79
2023/07/02 07:50:34;;;;;;;1999.90;999.90;;;;;;;15.95;100.00;93740.06;5108681;28;20172;-80
2023/07/02 07:52:59;;;;;;;1999.90;999.90;;;;;;;16.03;100.00;93730.16;5108814;28;20243;-78
2023/07/02 07:55:25;;;;;;;1999.90;999.90;;;;;;;16.05;100.00;93722.19;5107136;28;20172;-76
2023/07/02 07:57:50;;;;;;;1999.90;999.90;;;;;;;16.10;100.00;93721.50;5108281;28;20207;-78
2023/07/02 08:00:17;;;;;;;1999.90;999.90;;;;;;;16.09;100.00;93700.72;5108139;28;20178;-77
2023/07/02 08:02:43;;;;;;;1999.90;999.90;;;;;;;16.18;100.00;93686.81;5108706;28;20237;-79
2023/07/02 08:05:09;;;;;;;1999.90;999.90;;;;;;;16.28;100.00;93662.63;5108074;28;20243;-82
2023/07/02 08:07:35;;;;;;;1999.90;999.90;;;;;;;16.31;100.00;93656.94;5108108;28;20209;-78
2023/07/02 08:10:02;;;;;;;1999.90;999.90;;;;;;;16.36;100.00;93652.75;5108478;28;20172;-79
2023/07/02 08:12:29;;;;;;;1999.90;999.90;;;;;;;16.44;100.00;93654.59;5108307;28;20167;-76
2023/07/02 08:14:55;;;;;;;1999.90;999.90;;;;;;;16.80;100.00;93630.47;5108450;28;20233;-81
2023/07/02 08:17:20;;;;;;;1999.90;999.90;;;;;;;17.03;100.00;93618.41;5108488;28;20200;-80
2023/07/02 08:19:45;;;;;;;1999.90;999.90;;;;;;;17.22;100.00;93611.31;5108294;28;20168;-79
2023/07/02 08:22:11;;;;;;;1999.90;999.90;;;;;;;17.36;100.00;93621.44;5107883;28;20220;-76
2023/07/02 08:24:36;;;;;;;1999.90;999.90;;;;;;;17.60;100.00;93616.41;5108359;28;20190;-73
2023/07/02 08:27:04;;;;;;;1999.90;999.90;;;;;;;17.35;100.00;93653.03;5107865;28;20191;-72
2023/07/02 08:29:30;;;;;;;1999.90;999.90;;;;;;;17.38;100.00;93685.19;5107915;28;20242;-72
2023/07/02 08:31:56;;;;;;;1999.90;999.90;;;;;;;17.38;100.00;93712.78;5108377;28;20178;-71
2023/07/02 08:34:22;;;;;;;1999.90;999.90;;;;;;;17.36;100.00;93737.34;5108190;28;20178;-70
2023/07/02 08:36:47;;;;;;;1999.90;999.90;;;;;;;17.28;100.00;93752.81;5107611;28;20216;-70
2023/07/02 08:39:12;;;;;;;1999.90;999.90;;;;;;;17.07;100.00;93798.22;5107776;28;20168;-70
2023/07/02 08:41:48;;;;;;;1999.90;999.90;;;;;;;17.12;100.00;93797.56;5108128;28;20178;-69
2023/07/02 08:44:18;;;;;;;1999.90;999.90;;;;;;;17.17;100.00;93816.94;5107936;28;20168;-68
2023/07/02 08:46:44;;;;;;;1999.90;999.90;;;;;;;17.25;100.00;93820.00;5107951;28;20174;-70
2023/07/02 08:49:10;;;;;;;1999.90;999.90;;;;;;;17.16;100.00;93845.00;5107988;28;20171;-67
2023/07/02 08:51:36;;;;;;;1999.90;999.90;;;;;;;17.18;100.00;93845.25;5107434;28;20217;-68
2023/07/02 08:54:02;;;;;;;1999.90;999.90;;;;;;;17.09;100.00;93856.44;5107162;28;20217;-68
2023/07/02 08:56:28;;;;;;;1999.90;999.90;;;;;;;17.03;100.00;93853.63;5107412;28;20166;-68
2023/07/02 08:58:54;;;;;;;1999.90;999.90;;;;;;;16.92;100.00;93863.72;5107768;28;20230;-68
2023/07/02 09:01:19;;;;;;;1999.90;999.90;;;;;;;16.88;100.00;93863.19;5107828;28;20217;-67
2023/07/02 09:03:45;;;;;;;1999.90;999.90;;;;;;;16.87;100.00;93850.63;5107291;28;20174;-68
2023/07/02 09:06:11;;;;;;;1999.90;999.90;;;;;;;16.86;100.00;93849.13;5110344;28;20175;-68
2023/07/02 09:08:37;;;;;;;1999.90;999.90;;;;;;;16.84;100.00;93829.53;5112138;28;20209;-67
2023/07/02 09:11:06;;;;;;;1999.90;999.90;;;;;;;16.82;100.00;93830.00;5111973;28;20235;-69
2023/07/02 09:13:31;;;;;;;1999.90;999.90;;;;;;;16.92;100.00;93819.59;5111351;28;20199;-70
2023/07/02 09:15:56;;;;;;;1999.90;999.90;;;;;;;16.94;100.00;93811.63;5111661;28;20193;-68
2023/07/02 09:18:26;;;;;;;1999.90;999.90;;;;;;;16.90;100.00;93805.56;5111296;28;20198;-67
2023/07/02 09:20:53;;;;;;;1999.90;999.90;;;;;;;16.94;100.00;93784.81;5111249;28;20247;-71
2023/07/02 09:23:19;;;;;;;1999.90;999.90;;;;;;;16.97;100.00;93767.28;5111252;28;20216;-70
2023/07/02 09:25:45;;;;;;;1999.90;999.90;;;;;;;16.96;100.00;93759.47;5111570;28;20164;-71
2023/07/02 09:28:19;;;;;;;1999.90;999.90;;;;;;;16.87;100.00;93746.63;5111171;28;20175;-71
2023/07/02 09:30:56;;;;;;;1999.90;999.90;;;;;;;16.98;100.00;93737.72;5111654;28;20195;-72
2023/07/02 09:33:27;;;;;;;1999.90;999.90;;;;;;;17.13;100.00;93738.38;5110681;28;20174;-70
2023/07/02 09:35:53;;;;;;;1999.90;999.90;;;;;;;17.40;100.00;93718.56;5110714;28;20215;-69
2023/07/02 09:38:22;;;;;;;1999.90;999.90;;;;;;;17.65;100.00;93715.81;5111374;28;20225;-70
2023/07/02 09:40:50;;;;;;;1999.90;999.90;;;;;;;17.63;100.00;93720.34;5111009;28;20168;-71
2023/07/02 09:43:17;;;;;;;1999.90;999.90;;;;;;;17.56;100.00;93734.56;5111364;28;20168;-69
2023/07/02 09:45:45;;;;;;;1999.90;999.90;;;;;;;17.65;100.00;93750.97;5111316;28;20246;-66
2023/07/02 09:48:14;;;;;;;1999.90;999.90;;;;;;;17.88;100.00;93755.44;5111325;28;20176;-68
2023/07/02 09:50:41;;;;;;;1999.90;999.90;;;;;;;18.12;100.00;93780.72;5111320;28;20197;-67
2023/07/02 09:53:06;;;;;;;1999.90;999.90;;;;;;;18.19;100.00;93818.97;5110593;28;20167;-67
2023/07/02 09:55:32;;;;;;;1999.90;999.90;;;;;;;18.10;100.00;93871.66;5110319;28;20168;-66
2023/07/02 09:57:58;;;;;;;1999.90;999.90;;;;;;;17.87;100.00;93914.13;5111000;28;20210;-65
2023/07/02 10:00:23;;;;;;;1999.90;999.90;;;;;;;17.81;100.00;93951.97;5110571;28;20239;-66
2023/07/02 10:02:50;;;;;;;1999.90;999.90;;;;;;;17.69;100.00;93953.84;5111047;28;20263;-66
2023/07/02 10:05:31;;;;;;;1999.90;999.90;;;;;;;17.60;100.00;93954.00;5110384;28;20176;-66
2023/07/02 10:07:58;;;;;;;1999.90;999.90;;;;;;;17.81;100.00;93943.69;5110541;28;20221;-66
2023/07/02 10:10:31;;;;;;;1999.90;999.90;;;;;;;18.04;100.00;93950.97;5110331;28;20172;-65
2023/07/02 10:12:57;;;;;;;1999.90;999.90;;;;;;;18.30;100.00;93943.44;5110270;28;20176;-66
2023/07/02 10:15:28;;;;;;;1999.90;999.90;;;;;;;18.55;100.00;93956.53;5110805;28;20234;-65
2023/07/02 10:18:03;;;;;;;1999.90;999.90;;;;;;;19.14;100.00;93958.28;5108993;28;20200;-66
2023/07/02 10:20:46;;;;;;;1999.90;999.90;;;;;;;21.01;100.00;93949.84;5110166;28;20171;-66
2023/07/02 10:23:12;;;;;;;1999.90;999.90;;;;;;;21.61;100.00;94037.94;5110919;28;20167;-65
2023/07/02 10:25:38;;;;;;;1999.90;999.90;;;;;;;21.32;100.00;94182.94;5110754;28;20168;-66
2023/07/02 10:28:17;;;;;;;1999.90;999.90;;;;;;;21.26;100.00;94307.13;5110559;28;20202;-66
2023/07/02 10:30:43;;;;;;;1999.90;999.90;;;;;;;21.28;100.00;94354.63;5110702;28;20168;-65
2023/07/02 10:33:11;;;;;;;1999.90;999.90;;;;;;;21.59;100.00;94382.31;5110327;28;20163;-65
2023/07/02 10:35:38;;;;;;;1999.90;999.90;;;;;;;22.03;100.00;94395.63;5109877;28;20223;-65
2023/07/02 10:38:06;;;;;;;1999.90;999.90;;;;;;;22.64;100.00;94412.44;5109745;28;20199;-65
2023/07/02 10:40:33;;;;;;;1999.90;999.90;;;;;;;22.55;100.00;94429.41;5109616;28;20243;-65
2023/07/02 10:42:59;;;;;;;1999.90;999.90;;;;;;;22.42;100.00;94444.53;5109773;28;20216;-65